Sir William Alexander — CGUM — position and weather

sailwx.info

Track history (hours):
 
Tides and Currents Weather Stations Pressure Air Temp Water Temp Dewpoint Dewpoint Depression Visibility Wind Speed Wind Dir Waves Ship Positions

Sir William Alexander

Last reported at 2017-Dec-16 18:00 UTC. Time now 2017-Dec-16 19:09 UTC.
Position N 46°06' W 063°42'.

Length 83 m; draft 6 m.

Type: SAR. MMSI: 316053000.

Wind from 300 at 17 knots

Barometer 1003.0 mb
Air temperature -7.5 ° C
Dewpoint -13.4 ° C

Date/timePositionNaut miles runAvg speedWind from/ knotsBaromVisibWave heightAir tempDewpointWater temp
2017-Dec-16 18:00N 46°06' W 063°42'6 6.0 300 / 171003.0 -7.5-13.4
2017-Dec-16 17:00N 46°12' W 063°42'8 8.3 310 / 181002.9 -7.2-11.3
2017-Dec-16 16:00N 46°12' W 063°30'0 0.0 310 / 141003.9 -6.1-11.5
2017-Dec-16 15:00N 46°12' W 063°30'0 0.0 330 / 131004.5 -6.3-11.4
2017-Dec-16 14:00N 46°12' W 063°30'18 8.8 320 / 151005.1 -6.5-11.1
2017-Dec-16 12:00N 46°06' W 063°06'6 2.0 330 / 121005.4 -6.8-11.3
2017-Dec-16 09:00N 46°12' W 063°06'0 0.0 330 / 51008.6 -6.6-12.4
2017-Dec-16 08:00N 46°12' W 063°06'0 0.0 320 / 51008.6 -5.9-10.8
2017-Dec-16 07:00N 46°12' W 063°06'0 0.0 290 / 51009.5 -5.8-11.0
2017-Dec-16 06:00N 46°12' W 063°06'0 0.0 290 / 51009.6 -5.7-11.9
2017-Dec-16 05:00N 46°12' W 063°06'0 0.0 290 / 61010.9 -5.8-12.5
2017-Dec-16 03:00N 46°12' W 063°06'0 0.0 290 / 51012.1 -5.5-13.0
2017-Dec-16 02:00N 46°12' W 063°06'0 0.0 270 / 61012.9 -5.5-13.6
2017-Dec-16 01:00N 46°12' W 063°06'0 0.0 270 / 71013.2 -5.4-13.9
2017-Dec-16 00:00N 46°12' W 063°06'0 0.0 260 / 91013.3 -5.3-13.9
2017-Dec-15 23:00N 46°12' W 063°06'0 0.0 270 / 131013.3 -5.1-15.3
2017-Dec-15 22:00N 46°12' W 063°06'0 0.0 280 / 121012.7 -4.9-15.5
2017-Dec-15 21:00N 46°12' W 063°06'0 0.0 270 / 121012.0 -4.6-14.9
2017-Dec-15 20:00N 46°12' W 063°06'0 0.0 260 / 181011.1 -3.6-14.4
2017-Dec-15 19:00N 46°12' W 063°06'0 0.0 260 / 181010.4 -3.7-15.0
2017-Dec-15 18:00N 46°12' W 063°06'0 0.0 270 / 161010.0 -4.2-13.9
2017-Dec-15 17:00N 46°12' W 063°06'0 0.0 260 / 211009.3 -5.3-13.3
2017-Dec-15 16:00N 46°12' W 063°06'0 0.0 260 / 191009.3 -6.5-13.6
2017-Dec-15 15:00N 46°12' W 063°06'0 0.0 260 / 191009.1 -7.7-14.2
2017-Dec-15 14:00N 46°12' W 063°06'0 0.0 270 / 171008.3 -7.9-14.2
2017-Dec-15 13:00N 46°12' W 063°06'0 0.0 270 / 141007.6 -8.9-14.4
2017-Dec-15 12:00N 46°12' W 063°06'0 0.0 260 / 141006.9 -8.8-13.3
2017-Dec-15 11:00N 46°12' W 063°06'0 0.0 260 / 171005.8 -8.7-13.0
2017-Dec-15 10:00N 46°12' W 063°06'0 0.0 270 / 141005.2 -9.5-14.0
2017-Dec-15 09:00N 46°12' W 063°06'0 0.0 270 / 191004.7 -10.0-15.0
2017-Dec-15 08:00N 46°12' W 063°06'0 0.0 270 / 171004.5 -10.2-15.2
2017-Dec-15 07:00N 46°12' W 063°06'0 0.0 270 / 151004.1 -10.4-15.6
2017-Dec-15 06:00N 46°12' W 063°06'0 0.0 270 / 171003.2 -10.2-15.6
2017-Dec-15 05:00N 46°12' W 063°06'0 0.0 270 / 151002.5 -9.6-15.1
2017-Dec-15 04:00N 46°12' W 063°06'0 0.0 260 / 191001.7 -8.8-13.6
2017-Dec-15 03:00N 46°12' W 063°06'0 0.0 280 / 151001.3 -8.2-13.8
2017-Dec-15 02:00N 46°12' W 063°06'0 0.0 290 / 141000.5 -7.6-13.6
2017-Dec-15 01:00N 46°12' W 063°06'0 0.0 290 / 16999.6 -6.5-12.9
2017-Dec-15 00:00N 46°12' W 063°06'0 0.0 270 / 15998.8 -5.6-12.6
2017-Dec-14 23:00N 46°12' W 063°06'0 0.0 280 / 14997.6 -4.2-12.0
2017-Dec-14 22:00N 46°12' W 063°06'0 0.0 290 / 8997.0 -1.9-10.2
2017-Dec-14 21:00N 46°12' W 063°06'0 0.0 240 / 21996.2 -1.0-9.4
2017-Dec-14 20:00N 46°12' W 063°06'0 0.0 230 / 23995.5 -1.0-9.3
2017-Dec-14 19:00N 46°12' W 063°06'0 0.0 240 / 24994.9 -1.1-10.7
2017-Dec-14 18:00N 46°12' W 063°06'0 0.0 250 / 19995.9 -1.1-7.8
2017-Dec-14 17:00N 46°12' W 063°06'0 0.0 240 / 22996.2 -1.1-7.9
2017-Dec-14 16:00N 46°12' W 063°06'0 0.0 240 / 22996.7 -2.0-8.3
2017-Dec-14 15:00N 46°12' W 063°06'0 0.0 250 / 22996.6 -3.2-7.9
2017-Dec-14 14:00N 46°12' W 063°06'0 0.0 260 / 22995.8 -4.3-8.4
2017-Dec-14 13:00N 46°12' W 063°06'0 0.0 250 / 26 -5.2-8.1
2017-Dec-14 12:00N 46°12' W 063°06'0 0.0 250 / 28993.1 -5.8-9.1
2017-Dec-14 11:00N 46°12' W 063°06'0 0.0 250 / 27 -5.6-9.2
2017-Dec-14 10:00N 46°12' W 063°06'0 0.0 250 / 24990.3 -5.3-7.9
2017-Dec-14 09:00N 46°12' W 063°06'0 0.0 250 / 29988.6 -5.2-9.0
2017-Dec-14 08:00N 46°12' W 063°06'0 0.0 250 / 29986.6 -4.0-8.2
2017-Dec-14 07:00N 46°12' W 063°06'0 0.0 250 / 28985.0 -2.3-6.6
2017-Dec-14 06:00N 46°12' W 063°06'0 0.0 250 / 29983.0 -1.5-6.0
2017-Dec-14 05:00N 46°12' W 063°06'0 0.0 260 / 18982.1 -1.0-4.5
2017-Dec-14 04:00N 46°12' W 063°06'0 0.0 230 / 25980.6 0.7-2.7
2017-Dec-14 03:00N 46°12' W 063°06'0 0.0 220 / 24979.3 0.1-0.4
2017-Dec-14 02:00N 46°12' W 063°06'0 0.0 200 / 25979.3 1.7-2.4
2017-Dec-14 01:00N 46°12' W 063°06'0 0.0 210 / 19979.1 2.5-1.8
2017-Dec-13 23:00N 46°12' W 063°06'0 0.0 230 / 15977.5 4.2 2.6
2017-Dec-13 22:00N 46°12' W 063°06'0 0.0 190 / 18978.3 5.2 3.6
2017-Dec-13 21:00N 46°12' W 063°06'0 0.0 200 / 14978.0 5.3 3.5
2017-Dec-13 20:00N 46°12' W 063°06'6 6.0 240 / 21979.3 5.8 3.9
2017-Dec-13 19:00N 46°06' W 063°06'6 6.0 250 / 23979.1 5.5 4.5
2017-Dec-13 18:00N 46°00' W 063°06'8 8.3 280 / 9977.9 7.2 7.1
2017-Dec-13 17:00N 46°00' W 063°18'1413.9 180 / 15976.6 10.1 9.9
2017-Dec-13 16:00N 46°06' W 063°36'1514.6 150 / 17977.0 8.7 8.6
2017-Dec-13 15:00N 46°18' W 063°48'0 0.0 120 / 22978.3 8.1 7.9
2017-Dec-13 14:00N 46°18' W 063°48'4 4.1 130 / 20981.3 8.2 8.1
2017-Dec-13 13:00N 46°18' W 063°54'0 0.0 120 / 18983.0 6.6 6.4
2017-Dec-13 12:00N 46°18' W 063°54'4 4.1 130 / 27983.3 7.2 7.0
2017-Dec-13 11:00N 46°18' W 064°00'8 8.3 110 / 20984.5 5.6 5.3
2017-Dec-13 10:00N 46°18' W 064°12'7 7.3 110 / 32986.5 5.2 4.6
2017-Dec-13 09:00N 46°24' W 064°18'7 7.3 110 / 31989.2 4.9 3.9
2017-Dec-13 08:00N 46°30' W 064°24'7 7.3 090 / 26992.2 4.0 3.4
2017-Dec-13 07:00N 46°36' W 064°30'6 6.0 100 / 28994.4 3.4 2.5
2017-Dec-13 06:00N 46°42' W 064°30'7 7.3 090 / 32996.8 2.1 1.9
2017-Dec-13 05:00N 46°48' W 064°24'7 7.3 090 / 34999.8 1.2 1.0
2017-Dec-13 04:00N 46°54' W 064°18'7 7.3 090 / 301003.2 0.6 0.4
2017-Dec-13 03:00N 47°00' W 064°12'1514.5 100 / 361005.3 1.5 0.6
2017-Dec-13 02:00N 47°12' W 064°00'1010.1 100 / 351008.2 1.1-0.5
2017-Dec-13 01:00N 47°18' W 063°48'4 4.1 100 / 321010.3 1.0-0.9
2017-Dec-13 00:00N 47°18' W 063°42'1010.1 110 / 221011.7 0.8-1.0
2017-Dec-12 23:00N 47°24' W 063°30'4 4.1 100 / 281013.3 0.5-2.1
2017-Dec-12 22:00N 47°24' W 063°24'7 7.2 110 / 181013.8 0.8-2.3
2017-Dec-12 21:00N 47°18' W 063°30'8 8.1 130 / 211014.8 1.4-1.7
2017-Dec-12 20:00N 47°18' W 063°42'1010.1 110 / 141015.2 -0.0-1.4
2017-Dec-12 19:00N 47°12' W 063°54'7 7.3 150 / 171015.2 0.5-3.3
2017-Dec-12 18:00N 47°06' W 064°00'7 7.3 150 / 101015.1 0.6-3.3
2017-Dec-12 17:00N 47°00' W 063°54'1212.0 100 / 111016.2 -0.5-3.3
2017-Dec-12 16:00N 46°48' W 063°54'7 7.3 100 / 71017.9 -1.6-4.7
2017-Dec-12 15:00N 46°42' W 063°48'1010.2 070 / 91019.0 -1.7-5.0
2017-Dec-12 14:00N 46°36' W 063°36'1413.8 060 / 81019.5 -1.8-5.2
2017-Dec-12 13:00N 46°30' W 063°18'4 4.1 030 / 61019.4 -1.9-4.6
2017-Dec-12 12:00N 46°30' W 063°12'1010.2 010 / 71019.0 -1.5-4.4
2017-Dec-12 11:00N 46°24' W 063°00'1010.2 010 / 91018.8 -1.4-4.0
2017-Dec-12 10:00N 46°30' W 062°48'0 0.0 020 / 51018.8 -1.1-5.0
2017-Dec-12 09:00N 46°30' W 062°48'0 0.0 350 / 61018.7 -1.4-4.9
2017-Dec-12 08:00N 46°30' W 062°48'0 0.0 340 / 81018.1 -1.4-5.0
2017-Dec-12 07:00N 46°30' W 062°48'0 0.0 330 / 101017.8 -1.3-4.2
2017-Dec-12 05:00N 46°30' W 062°48'0 0.0 340 / 121016.5 -1.0-4.2
2017-Dec-12 04:00N 46°30' W 062°48'0 0.0 330 / 171015.9 -1.0-4.1
2017-Dec-12 03:00N 46°30' W 062°48'0 0.0 340 / 181015.8 -0.8-2.2
2017-Dec-12 02:00N 46°30' W 062°48'0 0.0 330 / 121015.4 -0.7-1.8
2017-Dec-12 01:00N 46°30' W 062°48'0 0.0 350 / 141014.6 -0.7-1.2
2017-Dec-12 00:00N 46°30' W 062°48'0 0.0 190 / 51014.1 -0.7-0.9
2017-Dec-11 23:00N 46°30' W 062°48'0 0.0 220 / 61013.8 -0.5-0.7
2017-Dec-11 21:00N 46°30' W 062°48'4 4.1 180 / 51012.9 0.2-1.5
2017-Dec-11 20:00N 46°30' W 062°42'1212.4 160 / 111012.9 0.8-3.2
2017-Dec-11 19:00N 46°30' W 062°24'8 8.3 160 / 71013.0 0.6-3.6
2017-Dec-11 18:00N 46°30' W 062°12'8 8.3 200 / 81013.2 1.1-4.2
2017-Dec-11 17:00N 46°30' W 062°00'7 7.3 190 / 101013.8 1.2-5.6
2017-Dec-11 16:00N 46°24' W 061°54'1717.3 200 / 111014.9 1.5-3.2
2017-Dec-11 15:00N 46°12' W 062°12'1212.5 200 / 131015.6 1.1-3.5
2017-Dec-11 14:00N 46°12' W 062°30'0 0.0 200 / 71015.5 -1.2-6.1
2017-Dec-11 13:00N 46°12' W 062°30'0 0.0 200 / 51015.2 -1.6-7.0
2017-Dec-11 12:00N 46°12' W 062°30'0 0.0 250 / 71015.1 -2.3-8.3
2017-Dec-11 11:00N 46°12' W 062°30'0 0.0 250 / 111014.4 -2.5-8.0
2017-Dec-11 10:00N 46°12' W 062°30'0 0.0 270 / 111013.5 -2.1-6.2
2017-Dec-11 08:00N 46°12' W 062°30'0 0.0 250 / 151012.0 -0.7-5.4
2017-Dec-11 07:00N 46°12' W 062°30'0 0.0 250 / 201011.5 0.3-4.0
2017-Dec-11 06:00N 46°12' W 062°30'0 0.0 200 / 81010.5 -0.6-3.3
2017-Dec-11 05:00N 46°12' W 062°30'0 0.0 210 / 61009.9 -1.3-3.8
2017-Dec-11 04:00N 46°12' W 062°30'0 0.0 230 / 131009.4 -1.0-3.8
2017-Dec-11 03:00N 46°12' W 062°30'0 0.0 270 / 121008.6 -0.3-3.6
2017-Dec-11 02:00N 46°12' W 062°30'0 0.0 250 / 181007.4 -0.0-3.1
2017-Dec-11 01:00N 46°12' W 062°30'0 0.0 260 / 141006.0 0.7-1.0
2017-Dec-11 00:00N 46°12' W 062°30'0 0.0 250 / 131005.4 0.7-0.0
2017-Dec-10 23:00N 46°12' W 062°30'0 0.0 250 / 91004.3 0.4-0.5
2017-Dec-10 22:00N 46°12' W 062°30'0 0.0 260 / 91003.1 0.8-0.4
2017-Dec-10 21:00N 46°12' W 062°30'0 0.0 280 / 91000.1 1.0-0.1
2017-Dec-10 20:00N 46°12' W 062°30'0 0.0 290 / 12998.5 1.2 0.5
2017-Dec-10 19:00N 46°12' W 062°30'0 0.0 280 / 12996.2 1.5 0.7
2017-Dec-10 18:00N 46°12' W 062°30'0 0.0 290 / 14995.2 1.8 1.0
2017-Dec-10 17:00N 46°12' W 062°30'0 0.0 290 / 13993.8 2.0 1.3
2017-Dec-10 15:00N 46°12' W 062°30'0 0.0 310 / 15990.6 2.4 2.1
2017-Dec-10 14:00N 46°12' W 062°30'0 0.0 290 / 15989.7 3.1 2.8
2017-Dec-10 13:00N 46°12' W 062°30'0 0.0 270 / 12988.8 3.3 3.1
2017-Dec-10 12:00N 46°12' W 062°30'0 0.0 300 / 7988.1 3.1 2.8
2017-Dec-10 11:00N 46°12' W 062°30'4 4.2 130 / 7987.5 5.5 5.3
2017-Dec-10 10:00N 46°12' W 062°24'6 6.0 050 / 11990.2 4.4 4.2
2017-Dec-10 09:00N 46°06' W 062°24'1212.0 040 / 10991.9 5.0 4.6
2017-Dec-10 08:00N 45°54' W 062°24'4 4.2 050 / 15993.2 4.6 4.0
2017-Dec-10 07:00N 45°54' W 062°30'8 8.4 060 / 23994.6 4.1 3.7
2017-Dec-10 06:00N 45°54' W 062°42'4 4.2 040 / 22998.6 3.4 3.0
2017-Dec-10 05:00N 45°54' W 062°48'4 4.2 040 / 201001.6 2.2 1.9
2017-Dec-10 04:00N 45°54' W 062°54'8 8.4 030 / 161004.6 1.8 1.6
2017-Dec-10 03:00N 45°54' W 063°06'1010.3 020 / 151007.6 1.4 1.2
2017-Dec-10 02:00N 46°00' W 063°18'7 7.3 070 / 181007.5 2.5 2.0
2017-Dec-10 01:00N 46°06' W 063°24'8 8.3 090 / 161011.2 3.4 2.5
2017-Dec-10 00:00N 46°06' W 063°36'7 7.3 100 / 231010.7 2.3 1.8
2017-Dec-09 23:00N 46°12' W 063°42'1010.2 080 / 101013.4 2.5 2.0
2017-Dec-09 22:00N 46°18' W 063°54'8 8.3 110 / 71014.1 3.1 1.6
2017-Dec-09 21:00N 46°18' W 064°06'8 8.3 150 / 121014.6 3.6 0.9
2017-Dec-09 20:00N 46°18' W 064°18'8 8.3 140 / 111014.7 3.2-0.4
2017-Dec-09 19:00N 46°18' W 064°30'1312.7 120 / 71014.7 2.8-0.9
2017-Dec-09 18:00N 46°30' W 064°24'1312.7 1014.9 3.3-1.2
2017-Dec-09 17:00N 46°42' W 064°30'8 8.2 150 / 121015.9 3.7-1.2
2017-Dec-09 16:00N 46°42' W 064°42'7 7.3 170 / 131016.3 2.3-3.0
2017-Dec-09 15:00N 46°48' W 064°48'6 6.0 170 / 101017.0 0.7-5.0
2017-Dec-09 14:00N 46°54' W 064°48'1212.0 180 / 81017.4 1.6-4.4
2017-Dec-09 13:00N 47°06' W 064°48'6 6.0 190 / 101017.0 0.9-3.3
2017-Dec-09 12:00N 47°12' W 064°48'7 7.3 210 / 111016.5 -0.1-3.8
2017-Dec-09 11:00N 47°18' W 064°54'7 7.2 240 / 51016.1 -0.6-3.6
2017-Dec-09 10:00N 47°24' W 064°48'0 0.0 230 / 81015.9 -0.2-3.8
2017-Dec-09 09:00N 47°24' W 064°48'0 0.0 230 / 91015.5 -0.1-4.1
2017-Dec-09 08:00N 47°24' W 064°48'0 0.0 230 / 101015.6 0.1-4.4
2017-Dec-09 07:00N 47°24' W 064°48'0 0.0 220 / 81015.5 0.2-4.9
2017-Dec-09 06:00N 47°24' W 064°48'0 0.0 220 / 91015.0 0.2-4.8
2017-Dec-09 05:00N 47°24' W 064°48'0 0.0 230 / 101015.1 0.2-6.6
2017-Dec-09 04:00N 47°24' W 064°48'0 0.0 250 / 111015.5 -0.1-6.6
2017-Dec-09 03:00N 47°24' W 064°48'0 0.0 250 / 141014.9 0.3-6.7
2017-Dec-09 02:00N 47°24' W 064°48'0 0.0 250 / 171014.5 0.8-6.1
2017-Dec-09 01:00N 47°24' W 064°48'0 0.0 240 / 141014.3 1.0-5.4
2017-Dec-09 00:00N 47°24' W 064°48'1312.7 230 / 251013.5 1.2-6.4
2017-Dec-08 23:00N 47°36' W 064°42'7 7.2 250 / 201012.6 1.3-5.4
2017-Dec-08 22:00N 47°42' W 064°36'0 0.0 240 / 191011.9 1.6-5.1
2017-Dec-08 21:00N 47°42' W 064°36'1312.7 230 / 171011.2 1.5-5.3
2017-Dec-08 20:00N 47°54' W 064°30'4 4.0 240 / 151011.0 1.3-5.5
2017-Dec-08 19:00N 47°54' W 064°24'1212.0 250 / 141010.1 1.0-4.4
2017-Dec-08 18:00N 48°06' W 064°24'7 7.2 250 / 161010.3 0.7-3.4
2017-Dec-08 17:00N 48°00' W 064°30'4 4.0 260 / 131010.3 -0.2-4.1
2017-Dec-08 16:00N 48°00' W 064°36'7 7.2 270 / 191010.2 -0.7-5.1
2017-Dec-08 15:00N 47°54' W 064°42'4 4.0 270 / 171010.3 -0.4-4.5
2017-Dec-08 14:00N 47°54' W 064°36'8 8.0 270 / 181010.5 -0.4-4.5
2017-Dec-08 13:00N 47°54' W 064°48'0 0.0 280 / 221009.4 -1.3-5.6
2017-Dec-08 12:00N 47°54' W 064°48'4 2.0 280 / 171008.9 -0.9-5.2
2017-Dec-08 10:00N 47°54' W 064°42'1312.7 280 / 211006.9 -0.8-4.3
2017-Dec-08 09:00N 48°06' W 064°36'17 8.5 280 / 171006.4 -1.1-4.9
2017-Dec-08 07:00N 47°54' W 064°18'6 6.0 240 / 161006.7 -0.7-5.0
2017-Dec-08 06:00N 47°48' W 064°18'6 6.0 250 / 151006.5 -0.0-5.1
2017-Dec-08 05:00N 47°42' W 064°18'1312.7 260 / 151006.5 0.3-5.1
2017-Dec-08 04:00N 47°30' W 064°24'6 6.0 250 / 171006.6 0.7-5.1
2017-Dec-08 03:00N 47°24' W 064°24'1212.0 250 / 191006.8 1.2-4.8
2017-Dec-08 02:00N 47°12' W 064°24'7 7.3 240 / 191007.2 1.1-4.4
2017-Dec-08 01:00N 47°06' W 064°30'1212.0 240 / 191007.5 1.4-4.4
2017-Dec-08 00:00N 46°54' W 064°30'1212.0 280 / 171007.8 1.5-3.8
2017-Dec-07 23:00N 46°42' W 064°30'1514.6 230 / 171007.9 1.5-2.2
2017-Dec-07 22:00N 46°30' W 064°18'1312.7 230 / 171007.8 2.1-2.6
2017-Dec-07 21:00N 46°18' W 064°12'1212.4 260 / 121007.3 3.2-2.4
2017-Dec-07 20:00N 46°18' W 063°54'7 7.3 280 / 161007.3 3.9-1.5
2017-Dec-07 19:00N 46°24' W 063°48'0 0.0 260 / 131006.8 4.1-2.0
2017-Dec-07 18:00N 46°24' W 063°48'0 0.0 250 / 101007.3 3.6-2.2
2017-Dec-07 17:00N 46°24' W 063°48'1212.0 240 / 161008.0 2.4-3.5
2017-Dec-07 16:00N 46°12' W 063°48'1413.8 240 / 111008.6 3.2-3.6
2017-Dec-07 15:00N 46°06' W 063°30'1413.9 240 / 131009.2 3.3-1.7
2017-Dec-07 14:00N 46°00' W 063°12'1413.9 210 / 111009.0 3.9-3.6
2017-Dec-07 13:00N 45°54' W 062°54'1312.5 200 / 81009.2 3.3-3.5
2017-Dec-07 12:00N 45°54' W 062°36'1010.3 060 / 11008.8 3.3-3.4
2017-Dec-07 11:00N 46°00' W 062°24'1312.7 280 / 91009.1 2.9-3.6
2017-Dec-07 10:00N 46°12' W 062°30'0 0.0 260 / 71009.4 1.0-3.3
2017-Dec-07 09:00N 46°12' W 062°30'0 0.0 260 / 71009.5 1.0-3.5
2017-Dec-07 08:00N 46°12' W 062°30'0 0.0 270 / 61009.3 1.6-2.1
2017-Dec-07 07:00N 46°12' W 062°30'0 0.0 240 / 71009.2 2.4-0.5
2017-Dec-07 06:00N 46°12' W 062°30'0 0.0 270 / 81009.0 2.9 0.4
2017-Dec-07 05:00N 46°12' W 062°30'0 0.0 280 / 121007.0 3.1 0.3
2017-Dec-07 04:00N 46°12' W 062°30'0 0.0 300 / 151007.8 4.2 0.5
2017-Dec-07 03:00N 46°12' W 062°30'0 0.0 280 / 81007.5 5.2 2.8
2017-Dec-07 02:00N 46°12' W 062°30'0 0.0 290 / 71007.7 5.5 3.4
2017-Dec-07 01:00N 46°12' W 062°30'0 0.0 320 / 111007.6 6.5 5.6
2017-Dec-07 00:00N 46°12' W 062°30'0 0.0 250 / 61007.6 10.2 9.7
2017-Dec-06 23:00N 46°12' W 062°30'0 0.0 180 / 121006.8 10.0 9.2
2017-Dec-06 22:00N 46°12' W 062°30'0 0.0 180 / 151007.2 9.8 8.4
2017-Dec-06 21:00N 46°12' W 062°30'0 0.0 170 / 111008.3 9.4 7.7
2017-Dec-06 20:00N 46°12' W 062°30'0 0.0 160 / 101008.7 9.5 7.4
2017-Dec-06 19:00N 46°12' W 062°30'   150 / 71009.5 9.5 7.5
Track history (hours):
 
Tides and Currents Weather Stations Pressure Air Temp Water Temp Dewpoint Dewpoint Depression Visibility Wind Speed Wind Dir Waves Ship Positions

Sir William Alexander

Last reported at 2017-Dec-16 18:00 UTC. Time now 2017-Dec-16 19:09 UTC.
Position N 46°06' W 063°42'.

Length 83 m; draft 6 m.

Type: SAR. MMSI: 316053000.

Wind from 300 at 17 knots

Barometer 1003.0 mb
Air temperature -7.5 ° C
Dewpoint -13.4 ° C

Date/timePositionNaut miles runAvg speedWind from/ knotsBaromVisibWave heightAir tempDewpointWater temp
2017-Dec-16 18:00N 46°06' W 063°42'6 6.0 300 / 171003.0 -7.5-13.4
2017-Dec-16 17:00N 46°12' W 063°42'8 8.3 310 / 181002.9 -7.2-11.3
2017-Dec-16 16:00N 46°12' W 063°30'0 0.0 310 / 141003.9 -6.1-11.5
2017-Dec-16 15:00N 46°12' W 063°30'0 0.0 330 / 131004.5 -6.3-11.4
2017-Dec-16 14:00N 46°12' W 063°30'18 8.8 320 / 151005.1 -6.5-11.1
2017-Dec-16 12:00N 46°06' W 063°06'6 2.0 330 / 121005.4 -6.8-11.3
2017-Dec-16 09:00N 46°12' W 063°06'0 0.0 330 / 51008.6 -6.6-12.4
2017-Dec-16 08:00N 46°12' W 063°06'0 0.0 320 / 51008.6 -5.9-10.8
2017-Dec-16 07:00N 46°12' W 063°06'0 0.0 290 / 51009.5 -5.8-11.0
2017-Dec-16 06:00N 46°12' W 063°06'0 0.0 290 / 51009.6 -5.7-11.9
2017-Dec-16 05:00N 46°12' W 063°06'0 0.0 290 / 61010.9 -5.8-12.5
2017-Dec-16 03:00N 46°12' W 063°06'0 0.0 290 / 51012.1 -5.5-13.0
2017-Dec-16 02:00N 46°12' W 063°06'0 0.0 270 / 61012.9 -5.5-13.6
2017-Dec-16 01:00N 46°12' W 063°06'0 0.0 270 / 71013.2 -5.4-13.9
2017-Dec-16 00:00N 46°12' W 063°06'0 0.0 260 / 91013.3 -5.3-13.9
2017-Dec-15 23:00N 46°12' W 063°06'0 0.0 270 / 131013.3 -5.1-15.3
2017-Dec-15 22:00N 46°12' W 063°06'0 0.0 280 / 121012.7 -4.9-15.5
2017-Dec-15 21:00N 46°12' W 063°06'0 0.0 270 / 121012.0 -4.6-14.9
2017-Dec-15 20:00N 46°12' W 063°06'0 0.0 260 / 181011.1 -3.6-14.4
2017-Dec-15 19:00N 46°12' W 063°06'0 0.0 260 / 181010.4 -3.7-15.0
2017-Dec-15 18:00N 46°12' W 063°06'0 0.0 270 / 161010.0 -4.2-13.9
2017-Dec-15 17:00N 46°12' W 063°06'0 0.0 260 / 211009.3 -5.3-13.3
2017-Dec-15 16:00N 46°12' W 063°06'0 0.0 260 / 191009.3 -6.5-13.6
2017-Dec-15 15:00N 46°12' W 063°06'0 0.0 260 / 191009.1 -7.7-14.2
2017-Dec-15 14:00N 46°12' W 063°06'0 0.0 270 / 171008.3 -7.9-14.2
2017-Dec-15 13:00N 46°12' W 063°06'0 0.0 270 / 141007.6 -8.9-14.4
2017-Dec-15 12:00N 46°12' W 063°06'0 0.0 260 / 141006.9 -8.8-13.3
2017-Dec-15 11:00N 46°12' W 063°06'0 0.0 260 / 171005.8 -8.7-13.0
2017-Dec-15 10:00N 46°12' W 063°06'0 0.0 270 / 141005.2 -9.5-14.0
2017-Dec-15 09:00N 46°12' W 063°06'0 0.0 270 / 191004.7 -10.0-15.0
2017-Dec-15 08:00N 46°12' W 063°06'0 0.0 270 / 171004.5 -10.2-15.2
2017-Dec-15 07:00N 46°12' W 063°06'0 0.0 270 / 151004.1 -10.4-15.6
2017-Dec-15 06:00N 46°12' W 063°06'0 0.0 270 / 171003.2 -10.2-15.6
2017-Dec-15 05:00N 46°12' W 063°06'0 0.0 270 / 151002.5 -9.6-15.1
2017-Dec-15 04:00N 46°12' W 063°06'0 0.0 260 / 191001.7 -8.8-13.6
2017-Dec-15 03:00N 46°12' W 063°06'0 0.0 280 / 151001.3 -8.2-13.8
2017-Dec-15 02:00N 46°12' W 063°06'0 0.0 290 / 141000.5 -7.6-13.6
2017-Dec-15 01:00N 46°12' W 063°06'0 0.0 290 / 16999.6 -6.5-12.9
2017-Dec-15 00:00N 46°12' W 063°06'0 0.0 270 / 15998.8 -5.6-12.6
2017-Dec-14 23:00N 46°12' W 063°06'0 0.0 280 / 14997.6 -4.2-12.0
2017-Dec-14 22:00N 46°12' W 063°06'0 0.0 290 / 8997.0 -1.9-10.2
2017-Dec-14 21:00N 46°12' W 063°06'0 0.0 240 / 21996.2 -1.0-9.4
2017-Dec-14 20:00N 46°12' W 063°06'0 0.0 230 / 23995.5 -1.0-9.3
2017-Dec-14 19:00N 46°12' W 063°06'0 0.0 240 / 24994.9 -1.1-10.7
2017-Dec-14 18:00N 46°12' W 063°06'0 0.0 250 / 19995.9 -1.1-7.8
2017-Dec-14 17:00N 46°12' W 063°06'0 0.0 240 / 22996.2 -1.1-7.9
2017-Dec-14 16:00N 46°12' W 063°06'0 0.0 240 / 22996.7 -2.0-8.3
2017-Dec-14 15:00N 46°12' W 063°06'0 0.0 250 / 22996.6 -3.2-7.9
2017-Dec-14 14:00N 46°12' W 063°06'0 0.0 260 / 22995.8 -4.3-8.4
2017-Dec-14 13:00N 46°12' W 063°06'0 0.0 250 / 26 -5.2-8.1
2017-Dec-14 12:00N 46°12' W 063°06'0 0.0 250 / 28993.1 -5.8-9.1
2017-Dec-14 11:00N 46°12' W 063°06'0 0.0 250 / 27 -5.6-9.2
2017-Dec-14 10:00N 46°12' W 063°06'0 0.0 250 / 24990.3 -5.3-7.9
2017-Dec-14 09:00N 46°12' W 063°06'0 0.0 250 / 29988.6 -5.2-9.0
2017-Dec-14 08:00N 46°12' W 063°06'0 0.0 250 / 29986.6 -4.0-8.2
2017-Dec-14 07:00N 46°12' W 063°06'0 0.0 250 / 28985.0 -2.3-6.6
2017-Dec-14 06:00N 46°12' W 063°06'0 0.0 250 / 29983.0 -1.5-6.0
2017-Dec-14 05:00N 46°12' W 063°06'0 0.0 260 / 18982.1 -1.0-4.5
2017-Dec-14 04:00N 46°12' W 063°06'0 0.0 230 / 25980.6 0.7-2.7
2017-Dec-14 03:00N 46°12' W 063°06'0 0.0 220 / 24979.3 0.1-0.4
2017-Dec-14 02:00N 46°12' W 063°06'0 0.0 200 / 25979.3 1.7-2.4
2017-Dec-14 01:00N 46°12' W 063°06'0 0.0 210 / 19979.1 2.5-1.8
2017-Dec-13 23:00N 46°12' W 063°06'0 0.0 230 / 15977.5 4.2 2.6
2017-Dec-13 22:00N 46°12' W 063°06'0 0.0 190 / 18978.3 5.2 3.6
2017-Dec-13 21:00N 46°12' W 063°06'0 0.0 200 / 14978.0 5.3 3.5
2017-Dec-13 20:00N 46°12' W 063°06'6 6.0 240 / 21979.3 5.8 3.9
2017-Dec-13 19:00N 46°06' W 063°06'6 6.0 250 / 23979.1 5.5 4.5
2017-Dec-13 18:00N 46°00' W 063°06'8 8.3 280 / 9977.9 7.2 7.1
2017-Dec-13 17:00N 46°00' W 063°18'1413.9 180 / 15976.6 10.1 9.9
2017-Dec-13 16:00N 46°06' W 063°36'1514.6 150 / 17977.0 8.7 8.6
2017-Dec-13 15:00N 46°18' W 063°48'0 0.0 120 / 22978.3 8.1 7.9
2017-Dec-13 14:00N 46°18' W 063°48'4 4.1 130 / 20981.3 8.2 8.1
2017-Dec-13 13:00N 46°18' W 063°54'0 0.0 120 / 18983.0 6.6 6.4
2017-Dec-13 12:00N 46°18' W 063°54'4 4.1 130 / 27983.3 7.2 7.0
2017-Dec-13 11:00N 46°18' W 064°00'8 8.3 110 / 20984.5 5.6 5.3
2017-Dec-13 10:00N 46°18' W 064°12'7 7.3 110 / 32986.5 5.2 4.6
2017-Dec-13 09:00N 46°24' W 064°18'7 7.3 110 / 31989.2 4.9 3.9
2017-Dec-13 08:00N 46°30' W 064°24'7 7.3 090 / 26992.2 4.0 3.4
2017-Dec-13 07:00N 46°36' W 064°30'6 6.0 100 / 28994.4 3.4 2.5
2017-Dec-13 06:00N 46°42' W 064°30'7 7.3 090 / 32996.8 2.1 1.9
2017-Dec-13 05:00N 46°48' W 064°24'7 7.3 090 / 34999.8 1.2 1.0
2017-Dec-13 04:00N 46°54' W 064°18'7 7.3 090 / 301003.2 0.6 0.4
2017-Dec-13 03:00N 47°00' W 064°12'1514.5 100 / 361005.3 1.5 0.6
2017-Dec-13 02:00N 47°12' W 064°00'1010.1 100 / 351008.2 1.1-0.5
2017-Dec-13 01:00N 47°18' W 063°48'4 4.1 100 / 321010.3 1.0-0.9
2017-Dec-13 00:00N 47°18' W 063°42'1010.1 110 / 221011.7 0.8-1.0
2017-Dec-12 23:00N 47°24' W 063°30'4 4.1 100 / 281013.3 0.5-2.1
2017-Dec-12 22:00N 47°24' W 063°24'7 7.2 110 / 181013.8 0.8-2.3
2017-Dec-12 21:00N 47°18' W 063°30'8 8.1 130 / 211014.8 1.4-1.7
2017-Dec-12 20:00N 47°18' W 063°42'1010.1 110 / 141015.2 -0.0-1.4
2017-Dec-12 19:00N 47°12' W 063°54'7 7.3 150 / 171015.2 0.5-3.3
2017-Dec-12 18:00N 47°06' W 064°00'7 7.3 150 / 101015.1 0.6-3.3
2017-Dec-12 17:00N 47°00' W 063°54'1212.0 100 / 111016.2 -0.5-3.3
2017-Dec-12 16:00N 46°48' W 063°54'7 7.3 100 / 71017.9 -1.6-4.7
2017-Dec-12 15:00N 46°42' W 063°48'1010.2 070 / 91019.0 -1.7-5.0
2017-Dec-12 14:00N 46°36' W 063°36'1413.8 060 / 81019.5 -1.8-5.2
2017-Dec-12 13:00N 46°30' W 063°18'4 4.1 030 / 61019.4 -1.9-4.6
2017-Dec-12 12:00N 46°30' W 063°12'1010.2 010 / 71019.0 -1.5-4.4
2017-Dec-12 11:00N 46°24' W 063°00'1010.2 010 / 91018.8 -1.4-4.0
2017-Dec-12 10:00N 46°30' W 062°48'0 0.0 020 / 51018.8 -1.1-5.0
2017-Dec-12 09:00N 46°30' W 062°48'0 0.0 350 / 61018.7 -1.4-4.9
2017-Dec-12 08:00N 46°30' W 062°48'0 0.0 340 / 81018.1 -1.4-5.0
2017-Dec-12 07:00N 46°30' W 062°48'0 0.0 330 / 101017.8 -1.3-4.2
2017-Dec-12 05:00N 46°30' W 062°48'0 0.0 340 / 121016.5 -1.0-4.2
2017-Dec-12 04:00N 46°30' W 062°48'0 0.0 330 / 171015.9 -1.0-4.1
2017-Dec-12 03:00N 46°30' W 062°48'0 0.0 340 / 181015.8 -0.8-2.2
2017-Dec-12 02:00N 46°30' W 062°48'0 0.0 330 / 121015.4 -0.7-1.8
2017-Dec-12 01:00N 46°30' W 062°48'0 0.0 350 / 141014.6 -0.7-1.2
2017-Dec-12 00:00N 46°30' W 062°48'0 0.0 190 / 51014.1 -0.7-0.9
2017-Dec-11 23:00N 46°30' W 062°48'0 0.0 220 / 61013.8 -0.5-0.7
2017-Dec-11 21:00N 46°30' W 062°48'4 4.1 180 / 51012.9 0.2-1.5
2017-Dec-11 20:00N 46°30' W 062°42'1212.4 160 / 111012.9 0.8-3.2
2017-Dec-11 19:00N 46°30' W 062°24'8 8.3 160 / 71013.0 0.6-3.6
2017-Dec-11 18:00N 46°30' W 062°12'8 8.3 200 / 81013.2 1.1-4.2
2017-Dec-11 17:00N 46°30' W 062°00'7 7.3 190 / 101013.8 1.2-5.6
2017-Dec-11 16:00N 46°24' W 061°54'1717.3 200 / 111014.9 1.5-3.2
2017-Dec-11 15:00N 46°12' W 062°12'1212.5 200 / 131015.6 1.1-3.5
2017-Dec-11 14:00N 46°12' W 062°30'0 0.0 200 / 71015.5 -1.2-6.1
2017-Dec-11 13:00N 46°12' W 062°30'0 0.0 200 / 51015.2 -1.6-7.0
2017-Dec-11 12:00N 46°12' W 062°30'0 0.0 250 / 71015.1 -2.3-8.3
2017-Dec-11 11:00N 46°12' W 062°30'0 0.0 250 / 111014.4 -2.5-8.0
2017-Dec-11 10:00N 46°12' W 062°30'0 0.0 270 / 111013.5 -2.1-6.2
2017-Dec-11 08:00N 46°12' W 062°30'0 0.0 250 / 151012.0 -0.7-5.4
2017-Dec-11 07:00N 46°12' W 062°30'0 0.0 250 / 201011.5 0.3-4.0
2017-Dec-11 06:00N 46°12' W 062°30'0 0.0 200 / 81010.5 -0.6-3.3
2017-Dec-11 05:00N 46°12' W 062°30'0 0.0 210 / 61009.9 -1.3-3.8
2017-Dec-11 04:00N 46°12' W 062°30'0 0.0 230 / 131009.4 -1.0-3.8
2017-Dec-11 03:00N 46°12' W 062°30'0 0.0 270 / 121008.6 -0.3-3.6
2017-Dec-11 02:00N 46°12' W 062°30'0 0.0 250 / 181007.4 -0.0-3.1
2017-Dec-11 01:00N 46°12' W 062°30'0 0.0 260 / 141006.0 0.7-1.0
2017-Dec-11 00:00N 46°12' W 062°30'0 0.0 250 / 131005.4 0.7-0.0
2017-Dec-10 23:00N 46°12' W 062°30'0 0.0 250 / 91004.3 0.4-0.5
2017-Dec-10 22:00N 46°12' W 062°30'0 0.0 260 / 91003.1 0.8-0.4
2017-Dec-10 21:00N 46°12' W 062°30'0 0.0 280 / 91000.1 1.0-0.1
2017-Dec-10 20:00N 46°12' W 062°30'0 0.0 290 / 12998.5 1.2 0.5
2017-Dec-10 19:00N 46°12' W 062°30'0 0.0 280 / 12996.2 1.5 0.7
2017-Dec-10 18:00N 46°12' W 062°30'0 0.0 290 / 14995.2 1.8 1.0
2017-Dec-10 17:00N 46°12' W 062°30'0 0.0 290 / 13993.8 2.0 1.3
2017-Dec-10 15:00N 46°12' W 062°30'0 0.0 310 / 15990.6 2.4 2.1
2017-Dec-10 14:00N 46°12' W 062°30'0 0.0 290 / 15989.7 3.1 2.8
2017-Dec-10 13:00N 46°12' W 062°30'0 0.0 270 / 12988.8 3.3 3.1
2017-Dec-10 12:00N 46°12' W 062°30'0 0.0 300 / 7988.1 3.1 2.8
2017-Dec-10 11:00N 46°12' W 062°30'4 4.2 130 / 7987.5 5.5 5.3
2017-Dec-10 10:00N 46°12' W 062°24'6 6.0 050 / 11990.2 4.4 4.2
2017-Dec-10 09:00N 46°06' W 062°24'1212.0 040 / 10991.9 5.0 4.6
2017-Dec-10 08:00N 45°54' W 062°24'4 4.2 050 / 15993.2 4.6 4.0
2017-Dec-10 07:00N 45°54' W 062°30'8 8.4 060 / 23994.6 4.1 3.7
2017-Dec-10 06:00N 45°54' W 062°42'4 4.2 040 / 22998.6 3.4 3.0
2017-Dec-10 05:00N 45°54' W 062°48'4 4.2 040 / 201001.6 2.2 1.9
2017-Dec-10 04:00N 45°54' W 062°54'8 8.4 030 / 161004.6 1.8 1.6
2017-Dec-10 03:00N 45°54' W 063°06'1010.3 020 / 151007.6 1.4 1.2
2017-Dec-10 02:00N 46°00' W 063°18'7 7.3 070 / 181007.5 2.5 2.0
2017-Dec-10 01:00N 46°06' W 063°24'8 8.3 090 / 161011.2 3.4 2.5
2017-Dec-10 00:00N 46°06' W 063°36'7 7.3 100 / 231010.7 2.3 1.8
2017-Dec-09 23:00N 46°12' W 063°42'1010.2 080 / 101013.4 2.5 2.0
2017-Dec-09 22:00N 46°18' W 063°54'8 8.3 110 / 71014.1 3.1 1.6
2017-Dec-09 21:00N 46°18' W 064°06'8 8.3 150 / 121014.6 3.6 0.9
2017-Dec-09 20:00N 46°18' W 064°18'8 8.3 140 / 111014.7 3.2-0.4
2017-Dec-09 19:00N 46°18' W 064°30'1312.7 120 / 71014.7 2.8-0.9
2017-Dec-09 18:00N 46°30' W 064°24'1312.7 1014.9 3.3-1.2
2017-Dec-09 17:00N 46°42' W 064°30'8 8.2 150 / 121015.9 3.7-1.2
2017-Dec-09 16:00N 46°42' W 064°42'7 7.3 170 / 131016.3 2.3-3.0
2017-Dec-09 15:00N 46°48' W 064°48'6 6.0 170 / 101017.0 0.7-5.0
2017-Dec-09 14:00N 46°54' W 064°48'1212.0 180 / 81017.4 1.6-4.4
2017-Dec-09 13:00N 47°06' W 064°48'6 6.0 190 / 101017.0 0.9-3.3
2017-Dec-09 12:00N 47°12' W 064°48'7 7.3 210 / 111016.5 -0.1-3.8
2017-Dec-09 11:00N 47°18' W 064°54'7 7.2 240 / 51016.1 -0.6-3.6
2017-Dec-09 10:00N 47°24' W 064°48'0 0.0 230 / 81015.9 -0.2-3.8
2017-Dec-09 09:00N 47°24' W 064°48'0 0.0 230 / 91015.5 -0.1-4.1
2017-Dec-09 08:00N 47°24' W 064°48'0 0.0 230 / 101015.6 0.1-4.4
2017-Dec-09 07:00N 47°24' W 064°48'0 0.0 220 / 81015.5 0.2-4.9
2017-Dec-09 06:00N 47°24' W 064°48'0 0.0 220 / 91015.0 0.2-4.8
2017-Dec-09 05:00N 47°24' W 064°48'0 0.0 230 / 101015.1 0.2-6.6
2017-Dec-09 04:00N 47°24' W 064°48'0 0.0 250 / 111015.5 -0.1-6.6
2017-Dec-09 03:00N 47°24' W 064°48'0 0.0 250 / 141014.9 0.3-6.7
2017-Dec-09 02:00N 47°24' W 064°48'0 0.0 250 / 171014.5 0.8-6.1
2017-Dec-09 01:00N 47°24' W 064°48'0 0.0 240 / 141014.3 1.0-5.4
2017-Dec-09 00:00N 47°24' W 064°48'1312.7 230 / 251013.5 1.2-6.4
2017-Dec-08 23:00N 47°36' W 064°42'7 7.2 250 / 201012.6 1.3-5.4
2017-Dec-08 22:00N 47°42' W 064°36'0 0.0 240 / 191011.9 1.6-5.1
2017-Dec-08 21:00N 47°42' W 064°36'1312.7 230 / 171011.2 1.5-5.3
2017-Dec-08 20:00N 47°54' W 064°30'4 4.0 240 / 151011.0 1.3-5.5
2017-Dec-08 19:00N 47°54' W 064°24'1212.0 250 / 141010.1 1.0-4.4
2017-Dec-08 18:00N 48°06' W 064°24'7 7.2 250 / 161010.3 0.7-3.4
2017-Dec-08 17:00N 48°00' W 064°30'4 4.0 260 / 131010.3 -0.2-4.1
2017-Dec-08 16:00N 48°00' W 064°36'7 7.2 270 / 191010.2 -0.7-5.1
2017-Dec-08 15:00N 47°54' W 064°42'4 4.0 270 / 171010.3 -0.4-4.5
2017-Dec-08 14:00N 47°54' W 064°36'8 8.0 270 / 181010.5 -0.4-4.5
2017-Dec-08 13:00N 47°54' W 064°48'0 0.0 280 / 221009.4 -1.3-5.6
2017-Dec-08 12:00N 47°54' W 064°48'4 2.0 280 / 171008.9 -0.9-5.2
2017-Dec-08 10:00N 47°54' W 064°42'1312.7 280 / 211006.9 -0.8-4.3
2017-Dec-08 09:00N 48°06' W 064°36'17 8.5 280 / 171006.4 -1.1-4.9
2017-Dec-08 07:00N 47°54' W 064°18'6 6.0 240 / 161006.7 -0.7-5.0
2017-Dec-08 06:00N 47°48' W 064°18'6 6.0 250 / 151006.5 -0.0-5.1
2017-Dec-08 05:00N 47°42' W 064°18'1312.7 260 / 151006.5 0.3-5.1
2017-Dec-08 04:00N 47°30' W 064°24'6 6.0 250 / 171006.6 0.7-5.1
2017-Dec-08 03:00N 47°24' W 064°24'1212.0 250 / 191006.8 1.2-4.8
2017-Dec-08 02:00N 47°12' W 064°24'7 7.3 240 / 191007.2 1.1-4.4
2017-Dec-08 01:00N 47°06' W 064°30'1212.0 240 / 191007.5 1.4-4.4
2017-Dec-08 00:00N 46°54' W 064°30'1212.0 280 / 171007.8 1.5-3.8
2017-Dec-07 23:00N 46°42' W 064°30'1514.6 230 / 171007.9 1.5-2.2
2017-Dec-07 22:00N 46°30' W 064°18'1312.7 230 / 171007.8 2.1-2.6
2017-Dec-07 21:00N 46°18' W 064°12'1212.4 260 / 121007.3 3.2-2.4
2017-Dec-07 20:00N 46°18' W 063°54'7 7.3 280 / 161007.3 3.9-1.5
2017-Dec-07 19:00N 46°24' W 063°48'0 0.0 260 / 131006.8 4.1-2.0
2017-Dec-07 18:00N 46°24' W 063°48'0 0.0 250 / 101007.3 3.6-2.2
2017-Dec-07 17:00N 46°24' W 063°48'1212.0 240 / 161008.0 2.4-3.5
2017-Dec-07 16:00N 46°12' W 063°48'1413.8 240 / 111008.6 3.2-3.6
2017-Dec-07 15:00N 46°06' W 063°30'1413.9 240 / 131009.2 3.3-1.7
2017-Dec-07 14:00N 46°00' W 063°12'1413.9 210 / 111009.0 3.9-3.6
2017-Dec-07 13:00N 45°54' W 062°54'1312.5 200 / 81009.2 3.3-3.5
2017-Dec-07 12:00N 45°54' W 062°36'1010.3 060 / 11008.8 3.3-3.4
2017-Dec-07 11:00N 46°00' W 062°24'1312.7 280 / 91009.1 2.9-3.6
2017-Dec-07 10:00N 46°12' W 062°30'0 0.0 260 / 71009.4 1.0-3.3
2017-Dec-07 09:00N 46°12' W 062°30'0 0.0 260 / 71009.5 1.0-3.5
2017-Dec-07 08:00N 46°12' W 062°30'0 0.0 270 / 61009.3 1.6-2.1
2017-Dec-07 07:00N 46°12' W 062°30'0 0.0 240 / 71009.2 2.4-0.5
2017-Dec-07 06:00N 46°12' W 062°30'0 0.0 270 / 81009.0 2.9 0.4
2017-Dec-07 05:00N 46°12' W 062°30'0 0.0 280 / 121007.0 3.1 0.3
2017-Dec-07 04:00N 46°12' W 062°30'0 0.0 300 / 151007.8 4.2 0.5
2017-Dec-07 03:00N 46°12' W 062°30'0 0.0 280 / 81007.5 5.2 2.8
2017-Dec-07 02:00N 46°12' W 062°30'0 0.0 290 / 71007.7 5.5 3.4
2017-Dec-07 01:00N 46°12' W 062°30'0 0.0 320 / 111007.6 6.5 5.6
2017-Dec-07 00:00N 46°12' W 062°30'0 0.0 250 / 61007.6 10.2 9.7
2017-Dec-06 23:00N 46°12' W 062°30'0 0.0 180 / 121006.8 10.0 9.2
2017-Dec-06 22:00N 46°12' W 062°30'0 0.0 180 / 151007.2 9.8 8.4
2017-Dec-06 21:00N 46°12' W 062°30'0 0.0 170 / 111008.3 9.4 7.7
2017-Dec-06 20:00N 46°12' W 062°30'0 0.0 160 / 101008.7 9.5 7.4
2017-Dec-06 19:00N 46°12' W 062°30'   150 / 71009.5 9.5 7.5

Dump ship's entire track history